sensor_id;sensor_type;location;lat;lon;timestamp;P1;durP1;ratioP1;P2;durP2;ratioP2
46753;SDS011;32500;50.620;3.400;2024-01-07T00:00:09;124.32;;;55.03;;
46753;SDS011;32500;50.620;3.400;2024-01-07T00:02:35;125.80;;;55.17;;
46753;SDS011;32500;50.620;3.400;2024-01-07T00:05:01;123.88;;;55.70;;
46753;SDS011;32500;50.620;3.400;2024-01-07T00:07:27;123.93;;;55.72;;
46753;SDS011;32500;50.620;3.400;2024-01-07T00:09:52;123.43;;;55.88;;
46753;SDS011;32500;50.620;3.400;2024-01-07T00:12:19;122.75;;;55.17;;
46753;SDS011;32500;50.620;3.400;2024-01-07T00:14:44;122.88;;;55.58;;
46753;SDS011;32500;50.620;3.400;2024-01-07T00:17:10;122.88;;;55.33;;
46753;SDS011;32500;50.620;3.400;2024-01-07T00:19:35;124.43;;;55.65;;
46753;SDS011;32500;50.620;3.400;2024-01-07T00:22:02;123.15;;;55.60;;
46753;SDS011;32500;50.620;3.400;2024-01-07T00:24:28;124.95;;;56.00;;
46753;SDS011;32500;50.620;3.400;2024-01-07T00:26:54;121.97;;;55.15;;
46753;SDS011;32500;50.620;3.400;2024-01-07T00:29:20;123.07;;;55.45;;
46753;SDS011;32500;50.620;3.400;2024-01-07T00:31:46;123.55;;;55.97;;
46753;SDS011;32500;50.620;3.400;2024-01-07T00:34:11;122.38;;;55.17;;
46753;SDS011;32500;50.620;3.400;2024-01-07T00:36:37;122.55;;;55.28;;
46753;SDS011;32500;50.620;3.400;2024-01-07T00:39:03;122.82;;;55.70;;
46753;SDS011;32500;50.620;3.400;2024-01-07T00:41:28;122.63;;;55.40;;
46753;SDS011;32500;50.620;3.400;2024-01-07T00:43:55;122.00;;;55.40;;
46753;SDS011;32500;50.620;3.400;2024-01-07T00:46:21;122.85;;;55.35;;
46753;SDS011;32500;50.620;3.400;2024-01-07T00:48:47;122.10;;;55.20;;
46753;SDS011;32500;50.620;3.400;2024-01-07T00:51:12;121.90;;;55.58;;
46753;SDS011;32500;50.620;3.400;2024-01-07T00:53:38;122.10;;;55.25;;
46753;SDS011;32500;50.620;3.400;2024-01-07T00:56:04;122.15;;;54.65;;
46753;SDS011;32500;50.620;3.400;2024-01-07T00:58:30;122.93;;;55.65;;
46753;SDS011;32500;50.620;3.400;2024-01-07T01:00:56;121.55;;;55.00;;
46753;SDS011;32500;50.620;3.400;2024-01-07T01:03:22;121.65;;;55.17;;
46753;SDS011;32500;50.620;3.400;2024-01-07T01:05:47;121.78;;;55.45;;
46753;SDS011;32500;50.620;3.400;2024-01-07T01:08:13;122.97;;;55.38;;
46753;SDS011;32500;50.620;3.400;2024-01-07T01:10:39;121.50;;;55.22;;
46753;SDS011;32500;50.620;3.400;2024-01-07T01:13:04;120.82;;;54.88;;
46753;SDS011;32500;50.620;3.400;2024-01-07T01:15:30;122.22;;;55.38;;
46753;SDS011;32500;50.620;3.400;2024-01-07T01:17:56;122.28;;;55.15;;
46753;SDS011;32500;50.620;3.400;2024-01-07T01:20:21;120.90;;;54.83;;
46753;SDS011;32500;50.620;3.400;2024-01-07T01:22:47;121.85;;;55.00;;
46753;SDS011;32500;50.620;3.400;2024-01-07T01:25:13;122.50;;;55.45;;
46753;SDS011;32500;50.620;3.400;2024-01-07T01:27:39;121.53;;;55.25;;
46753;SDS011;32500;50.620;3.400;2024-01-07T01:30:04;122.07;;;55.28;;
46753;SDS011;32500;50.620;3.400;2024-01-07T01:32:31;123.13;;;55.28;;
46753;SDS011;32500;50.620;3.400;2024-01-07T01:34:56;122.47;;;55.58;;
46753;SDS011;32500;50.620;3.400;2024-01-07T01:37:22;121.93;;;54.97;;
46753;SDS011;32500;50.620;3.400;2024-01-07T01:39:47;121.43;;;55.15;;
46753;SDS011;32500;50.620;3.400;2024-01-07T01:42:13;122.05;;;55.25;;
46753;SDS011;32500;50.620;3.400;2024-01-07T01:44:39;121.28;;;55.08;;
46753;SDS011;32500;50.620;3.400;2024-01-07T01:47:05;121.75;;;55.28;;
46753;SDS011;32500;50.620;3.400;2024-01-07T01:49:31;122.05;;;55.17;;
46753;SDS011;32500;50.620;3.400;2024-01-07T01:51:57;122.20;;;55.35;;
46753;SDS011;32500;50.620;3.400;2024-01-07T01:54:23;120.55;;;54.85;;
46753;SDS011;32500;50.620;3.400;2024-01-07T01:56:50;121.63;;;55.53;;
46753;SDS011;32500;50.620;3.400;2024-01-07T01:59:16;120.45;;;54.88;;
46753;SDS011;32500;50.620;3.400;2024-01-07T02:01:42;121.07;;;54.80;;
46753;SDS011;32500;50.620;3.400;2024-01-07T02:04:09;120.10;;;54.70;;
46753;SDS011;32500;50.620;3.400;2024-01-07T02:06:35;122.85;;;55.17;;
46753;SDS011;32500;50.620;3.400;2024-01-07T02:09:01;122.05;;;55.33;;
46753;SDS011;32500;50.620;3.400;2024-01-07T02:11:27;119.95;;;54.55;;
46753;SDS011;32500;50.620;3.400;2024-01-07T02:13:53;120.15;;;54.70;;
46753;SDS011;32500;50.620;3.400;2024-01-07T02:16:18;122.18;;;54.92;;
46753;SDS011;32500;50.620;3.400;2024-01-07T02:18:44;121.22;;;54.97;;
46753;SDS011;32500;50.620;3.400;2024-01-07T02:21:12;120.32;;;54.70;;
46753;SDS011;32500;50.620;3.400;2024-01-07T02:23:38;120.00;;;54.88;;
46753;SDS011;32500;50.620;3.400;2024-01-07T02:26:04;121.25;;;54.90;;
46753;SDS011;32500;50.620;3.400;2024-01-07T02:28:30;121.22;;;55.00;;
46753;SDS011;32500;50.620;3.400;2024-01-07T02:30:56;122.43;;;55.22;;
46753;SDS011;32500;50.620;3.400;2024-01-07T02:33:22;121.38;;;55.00;;
46753;SDS011;32500;50.620;3.400;2024-01-07T02:35:48;121.88;;;55.17;;
46753;SDS011;32500;50.620;3.400;2024-01-07T02:38:13;122.13;;;55.00;;
46753;SDS011;32500;50.620;3.400;2024-01-07T02:40:39;120.35;;;54.55;;
46753;SDS011;32500;50.620;3.400;2024-01-07T02:43:05;119.25;;;54.47;;
46753;SDS011;32500;50.620;3.400;2024-01-07T02:45:30;120.68;;;55.17;;
46753;SDS011;32500;50.620;3.400;2024-01-07T02:47:56;120.47;;;54.75;;
46753;SDS011;32500;50.620;3.400;2024-01-07T02:50:22;120.53;;;54.83;;
46753;SDS011;32500;50.620;3.400;2024-01-07T02:52:47;120.03;;;54.75;;
46753;SDS011;32500;50.620;3.400;2024-01-07T02:55:13;120.00;;;54.67;;
46753;SDS011;32500;50.620;3.400;2024-01-07T02:57:39;119.68;;;54.67;;
46753;SDS011;32500;50.620;3.400;2024-01-07T03:00:05;119.82;;;54.83;;
46753;SDS011;32500;50.620;3.400;2024-01-07T03:02:31;120.95;;;55.03;;
46753;SDS011;32500;50.620;3.400;2024-01-07T03:04:57;120.35;;;54.92;;
46753;SDS011;32500;50.620;3.400;2024-01-07T03:07:23;121.00;;;54.83;;
46753;SDS011;32500;50.620;3.400;2024-01-07T03:09:48;120.13;;;55.00;;
46753;SDS011;32500;50.620;3.400;2024-01-07T03:12:15;120.90;;;54.83;;
46753;SDS011;32500;50.620;3.400;2024-01-07T03:14:41;121.47;;;54.83;;
46753;SDS011;32500;50.620;3.400;2024-01-07T03:17:07;120.40;;;55.17;;
46753;SDS011;32500;50.620;3.400;2024-01-07T03:19:32;120.15;;;54.85;;
46753;SDS011;32500;50.620;3.400;2024-01-07T03:21:58;121.30;;;54.70;;
46753;SDS011;32500;50.620;3.400;2024-01-07T03:24:24;120.55;;;55.20;;
46753;SDS011;32500;50.620;3.400;2024-01-07T03:26:49;120.05;;;55.05;;
46753;SDS011;32500;50.620;3.400;2024-01-07T03:29:15;120.07;;;54.85;;
46753;SDS011;32500;50.620;3.400;2024-01-07T03:31:41;120.18;;;54.58;;
46753;SDS011;32500;50.620;3.400;2024-01-07T03:34:06;119.97;;;54.85;;
46753;SDS011;32500;50.620;3.400;2024-01-07T03:36:32;121.45;;;55.10;;
46753;SDS011;32500;50.620;3.400;2024-01-07T03:38:58;120.40;;;54.97;;
46753;SDS011;32500;50.620;3.400;2024-01-07T03:41:23;120.78;;;54.83;;
46753;SDS011;32500;50.620;3.400;2024-01-07T03:43:49;119.45;;;54.78;;
46753;SDS011;32500;50.620;3.400;2024-01-07T03:46:15;118.85;;;54.58;;
46753;SDS011;32500;50.620;3.400;2024-01-07T03:48:41;120.78;;;55.05;;
46753;SDS011;32500;50.620;3.400;2024-01-07T03:51:07;120.50;;;54.78;;
46753;SDS011;32500;50.620;3.400;2024-01-07T03:53:33;118.88;;;54.35;;
46753;SDS011;32500;50.620;3.400;2024-01-07T03:55:59;119.57;;;54.50;;
46753;SDS011;32500;50.620;3.400;2024-01-07T03:58:25;119.22;;;54.78;;
46753;SDS011;32500;50.620;3.400;2024-01-07T04:00:50;119.68;;;54.60;;
46753;SDS011;32500;50.620;3.400;2024-01-07T04:03:16;120.88;;;54.75;;
46753;SDS011;32500;50.620;3.400;2024-01-07T04:05:42;119.95;;;54.97;;
46753;SDS011;32500;50.620;3.400;2024-01-07T04:08:11;120.10;;;54.70;;
46753;SDS011;32500;50.620;3.400;2024-01-07T04:10:37;120.20;;;54.88;;
46753;SDS011;32500;50.620;3.400;2024-01-07T04:13:03;119.95;;;55.00;;
46753;SDS011;32500;50.620;3.400;2024-01-07T04:15:33;120.72;;;55.10;;
46753;SDS011;32500;50.620;3.400;2024-01-07T04:18:02;119.97;;;54.80;;
46753;SDS011;32500;50.620;3.400;2024-01-07T04:20:28;119.47;;;54.90;;
46753;SDS011;32500;50.620;3.400;2024-01-07T04:22:54;120.03;;;54.92;;
46753;SDS011;32500;50.620;3.400;2024-01-07T04:25:20;118.97;;;54.78;;
46753;SDS011;32500;50.620;3.400;2024-01-07T04:27:46;120.63;;;55.25;;
46753;SDS011;32500;50.620;3.400;2024-01-07T04:30:12;120.28;;;55.20;;
46753;SDS011;32500;50.620;3.400;2024-01-07T04:32:38;120.30;;;55.08;;
46753;SDS011;32500;50.620;3.400;2024-01-07T04:35:03;120.05;;;54.97;;
46753;SDS011;32500;50.620;3.400;2024-01-07T04:37:29;120.13;;;55.10;;
46753;SDS011;32500;50.620;3.400;2024-01-07T04:39:55;119.72;;;55.13;;
46753;SDS011;32500;50.620;3.400;2024-01-07T04:42:20;119.88;;;55.20;;
46753;SDS011;32500;50.620;3.400;2024-01-07T04:44:46;119.63;;;54.88;;
46753;SDS011;32500;50.620;3.400;2024-01-07T04:49:54;119.55;;;55.25;;
46753;SDS011;32500;50.620;3.400;2024-01-07T04:52:24;119.97;;;55.33;;
46753;SDS011;32500;50.620;3.400;2024-01-07T04:54:50;120.45;;;55.45;;
46753;SDS011;32500;50.620;3.400;2024-01-07T04:57:16;122.35;;;55.45;;
46753;SDS011;32500;50.620;3.400;2024-01-07T04:59:43;120.00;;;55.05;;
46753;SDS011;32500;50.620;3.400;2024-01-07T05:02:08;119.88;;;55.38;;
46753;SDS011;32500;50.620;3.400;2024-01-07T05:04:35;119.75;;;55.08;;
46753;SDS011;32500;50.620;3.400;2024-01-07T05:07:01;121.82;;;55.67;;
46753;SDS011;32500;50.620;3.400;2024-01-07T05:09:27;119.95;;;55.38;;
46753;SDS011;32500;50.620;3.400;2024-01-07T05:11:52;118.78;;;54.83;;
46753;SDS011;32500;50.620;3.400;2024-01-07T05:14:18;119.88;;;54.85;;
46753;SDS011;32500;50.620;3.400;2024-01-07T05:16:44;119.65;;;55.13;;
46753;SDS011;32500;50.620;3.400;2024-01-07T05:19:09;120.47;;;54.88;;
46753;SDS011;32500;50.620;3.400;2024-01-07T05:21:35;120.50;;;55.35;;
46753;SDS011;32500;50.620;3.400;2024-01-07T05:24:01;119.80;;;55.35;;
46753;SDS011;32500;50.620;3.400;2024-01-07T05:26:26;120.10;;;55.10;;
46753;SDS011;32500;50.620;3.400;2024-01-07T05:28:52;120.22;;;55.17;;
46753;SDS011;32500;50.620;3.400;2024-01-07T05:31:18;120.13;;;54.95;;
46753;SDS011;32500;50.620;3.400;2024-01-07T05:33:44;119.78;;;55.22;;
46753;SDS011;32500;50.620;3.400;2024-01-07T05:36:11;120.65;;;55.40;;
46753;SDS011;32500;50.620;3.400;2024-01-07T05:38:37;119.60;;;55.17;;
46753;SDS011;32500;50.620;3.400;2024-01-07T05:41:03;120.07;;;55.70;;
46753;SDS011;32500;50.620;3.400;2024-01-07T05:43:29;119.63;;;55.10;;
46753;SDS011;32500;50.620;3.400;2024-01-07T05:45:54;120.63;;;55.75;;
46753;SDS011;32500;50.620;3.400;2024-01-07T05:48:21;121.05;;;55.58;;
46753;SDS011;32500;50.620;3.400;2024-01-07T05:50:47;121.55;;;55.72;;
46753;SDS011;32500;50.620;3.400;2024-01-07T05:53:13;120.15;;;55.83;;
46753;SDS011;32500;50.620;3.400;2024-01-07T05:55:39;118.88;;;55.08;;
46753;SDS011;32500;50.620;3.400;2024-01-07T05:58:04;120.50;;;55.40;;
46753;SDS011;32500;50.620;3.400;2024-01-07T06:00:30;120.35;;;55.72;;
46753;SDS011;32500;50.620;3.400;2024-01-07T06:02:56;119.68;;;55.72;;
46753;SDS011;32500;50.620;3.400;2024-01-07T06:05:22;120.30;;;55.63;;
46753;SDS011;32500;50.620;3.400;2024-01-07T06:07:48;120.00;;;55.72;;
46753;SDS011;32500;50.620;3.400;2024-01-07T06:10:13;120.53;;;55.80;;
46753;SDS011;32500;50.620;3.400;2024-01-07T06:12:40;119.97;;;55.42;;
46753;SDS011;32500;50.620;3.400;2024-01-07T06:15:05;120.13;;;55.47;;
46753;SDS011;32500;50.620;3.400;2024-01-07T06:17:31;119.75;;;55.53;;
46753;SDS011;32500;50.620;3.400;2024-01-07T06:19:57;119.38;;;56.00;;
46753;SDS011;32500;50.620;3.400;2024-01-07T06:22:23;119.20;;;55.22;;
46753;SDS011;32500;50.620;3.400;2024-01-07T06:24:48;119.50;;;55.58;;
46753;SDS011;32500;50.620;3.400;2024-01-07T06:27:14;119.75;;;55.53;;
46753;SDS011;32500;50.620;3.400;2024-01-07T06:29:39;120.95;;;55.80;;
46753;SDS011;32500;50.620;3.400;2024-01-07T06:32:05;120.85;;;55.70;;
46753;SDS011;32500;50.620;3.400;2024-01-07T06:34:31;119.93;;;55.75;;
46753;SDS011;32500;50.620;3.400;2024-01-07T06:36:58;120.22;;;56.00;;
46753;SDS011;32500;50.620;3.400;2024-01-07T06:39:24;119.90;;;55.75;;
46753;SDS011;32500;50.620;3.400;2024-01-07T06:41:52;119.82;;;55.83;;
46753;SDS011;32500;50.620;3.400;2024-01-07T06:44:18;120.15;;;55.95;;
46753;SDS011;32500;50.620;3.400;2024-01-07T06:46:43;120.32;;;55.97;;
46753;SDS011;32500;50.620;3.400;2024-01-07T06:49:09;119.93;;;55.80;;
46753;SDS011;32500;50.620;3.400;2024-01-07T06:51:34;119.95;;;55.90;;
46753;SDS011;32500;50.620;3.400;2024-01-07T06:54:00;119.47;;;55.50;;
46753;SDS011;32500;50.620;3.400;2024-01-07T06:56:26;119.82;;;55.47;;
46753;SDS011;32500;50.620;3.400;2024-01-07T06:58:51;120.35;;;56.05;;
46753;SDS011;32500;50.620;3.400;2024-01-07T07:01:19;120.68;;;55.78;;
46753;SDS011;32500;50.620;3.400;2024-01-07T07:03:45;119.80;;;55.45;;
46753;SDS011;32500;50.620;3.400;2024-01-07T07:06:11;120.30;;;55.83;;
46753;SDS011;32500;50.620;3.400;2024-01-07T07:08:37;119.80;;;55.67;;
46753;SDS011;32500;50.620;3.400;2024-01-07T07:11:03;120.38;;;55.97;;
46753;SDS011;32500;50.620;3.400;2024-01-07T07:13:29;120.85;;;55.90;;
46753;SDS011;32500;50.620;3.400;2024-01-07T07:15:55;120.85;;;55.72;;
46753;SDS011;32500;50.620;3.400;2024-01-07T07:18:20;120.28;;;55.55;;
46753;SDS011;32500;50.620;3.400;2024-01-07T07:20:46;119.68;;;55.58;;
46753;SDS011;32500;50.620;3.400;2024-01-07T07:23:12;120.60;;;55.28;;
46753;SDS011;32500;50.620;3.400;2024-01-07T07:25:38;119.90;;;55.70;;
46753;SDS011;32500;50.620;3.400;2024-01-07T07:28:04;120.68;;;55.85;;
46753;SDS011;32500;50.620;3.400;2024-01-07T07:30:30;119.72;;;55.88;;
46753;SDS011;32500;50.620;3.400;2024-01-07T07:32:55;119.82;;;55.70;;
46753;SDS011;32500;50.620;3.400;2024-01-07T07:35:21;120.07;;;55.80;;
46753;SDS011;32500;50.620;3.400;2024-01-07T07:37:47;120.05;;;56.03;;
46753;SDS011;32500;50.620;3.400;2024-01-07T07:40:12;120.50;;;55.97;;
46753;SDS011;32500;50.620;3.400;2024-01-07T07:42:38;119.10;;;55.55;;
46753;SDS011;32500;50.620;3.400;2024-01-07T07:45:05;119.38;;;55.25;;
46753;SDS011;32500;50.620;3.400;2024-01-07T07:47:31;119.25;;;55.58;;
46753;SDS011;32500;50.620;3.400;2024-01-07T07:49:57;120.32;;;56.13;;
46753;SDS011;32500;50.620;3.400;2024-01-07T07:52:23;119.28;;;55.50;;
46753;SDS011;32500;50.620;3.400;2024-01-07T07:54:51;119.80;;;55.55;;
46753;SDS011;32500;50.620;3.400;2024-01-07T07:57:17;120.15;;;55.45;;
46753;SDS011;32500;50.620;3.400;2024-01-07T07:59:45;119.25;;;55.35;;
46753;SDS011;32500;50.620;3.400;2024-01-07T08:02:11;119.85;;;55.83;;
46753;SDS011;32500;50.620;3.400;2024-01-07T08:04:37;119.22;;;55.90;;
46753;SDS011;32500;50.620;3.400;2024-01-07T08:07:06;120.43;;;55.85;;
46753;SDS011;32500;50.620;3.400;2024-01-07T08:09:32;122.05;;;55.60;;
46753;SDS011;32500;50.620;3.400;2024-01-07T08:11:57;119.28;;;55.70;;
46753;SDS011;32500;50.620;3.400;2024-01-07T08:14:23;119.68;;;55.38;;
46753;SDS011;32500;50.620;3.400;2024-01-07T08:16:49;122.70;;;56.08;;
46753;SDS011;32500;50.620;3.400;2024-01-07T08:19:15;119.50;;;55.72;;
46753;SDS011;32500;50.620;3.400;2024-01-07T08:21:40;120.63;;;55.70;;
46753;SDS011;32500;50.620;3.400;2024-01-07T08:24:06;121.53;;;56.58;;
46753;SDS011;32500;50.620;3.400;2024-01-07T08:26:31;120.25;;;56.17;;
46753;SDS011;32500;50.620;3.400;2024-01-07T08:28:57;120.18;;;55.70;;
46753;SDS011;32500;50.620;3.400;2024-01-07T08:31:23;119.72;;;55.40;;
46753;SDS011;32500;50.620;3.400;2024-01-07T08:33:49;123.13;;;55.60;;
46753;SDS011;32500;50.620;3.400;2024-01-07T08:36:14;120.53;;;55.67;;
46753;SDS011;32500;50.620;3.400;2024-01-07T08:38:40;120.82;;;55.65;;
46753;SDS011;32500;50.620;3.400;2024-01-07T08:41:05;119.63;;;55.65;;
46753;SDS011;32500;50.620;3.400;2024-01-07T08:43:32;120.97;;;55.83;;
46753;SDS011;32500;50.620;3.400;2024-01-07T08:45:58;121.32;;;56.22;;
46753;SDS011;32500;50.620;3.400;2024-01-07T08:48:24;118.75;;;55.17;;
46753;SDS011;32500;50.620;3.400;2024-01-07T08:50:49;119.30;;;55.45;;
46753;SDS011;32500;50.620;3.400;2024-01-07T08:53:16;121.55;;;56.25;;
46753;SDS011;32500;50.620;3.400;2024-01-07T08:55:41;120.82;;;55.67;;
46753;SDS011;32500;50.620;3.400;2024-01-07T08:58:07;119.40;;;56.05;;
46753;SDS011;32500;50.620;3.400;2024-01-07T09:00:32;120.85;;;55.60;;
46753;SDS011;32500;50.620;3.400;2024-01-07T09:02:58;119.28;;;55.90;;
46753;SDS011;32500;50.620;3.400;2024-01-07T09:05:24;123.22;;;55.60;;
46753;SDS011;32500;50.620;3.400;2024-01-07T09:07:49;119.72;;;55.85;;
46753;SDS011;32500;50.620;3.400;2024-01-07T09:10:15;121.72;;;55.88;;
46753;SDS011;32500;50.620;3.400;2024-01-07T09:12:41;120.82;;;56.20;;
46753;SDS011;32500;50.620;3.400;2024-01-07T09:15:07;123.63;;;56.25;;
46753;SDS011;32500;50.620;3.400;2024-01-07T09:17:34;123.38;;;56.50;;
46753;SDS011;32500;50.620;3.400;2024-01-07T09:20:01;128.13;;;56.78;;
46753;SDS011;32500;50.620;3.400;2024-01-07T09:22:29;121.93;;;56.63;;
46753;SDS011;32500;50.620;3.400;2024-01-07T09:24:55;127.05;;;56.90;;
46753;SDS011;32500;50.620;3.400;2024-01-07T09:27:21;120.75;;;56.10;;
46753;SDS011;32500;50.620;3.400;2024-01-07T09:29:46;121.05;;;56.35;;
46753;SDS011;32500;50.620;3.400;2024-01-07T09:32:12;122.47;;;56.25;;
46753;SDS011;32500;50.620;3.400;2024-01-07T09:34:38;121.60;;;56.60;;
46753;SDS011;32500;50.620;3.400;2024-01-07T09:37:03;126.15;;;56.83;;
46753;SDS011;32500;50.620;3.400;2024-01-07T09:39:29;125.03;;;56.80;;
46753;SDS011;32500;50.620;3.400;2024-01-07T09:41:55;129.65;;;60.10;;
46753;SDS011;32500;50.620;3.400;2024-01-07T09:44:20;131.65;;;64.13;;
46753;SDS011;32500;50.620;3.400;2024-01-07T09:46:46;132.43;;;63.78;;
46753;SDS011;32500;50.620;3.400;2024-01-07T09:49:16;131.77;;;62.13;;
46753;SDS011;32500;50.620;3.400;2024-01-07T09:51:42;130.27;;;61.70;;
46753;SDS011;32500;50.620;3.400;2024-01-07T09:54:12;131.68;;;61.95;;
46753;SDS011;32500;50.620;3.400;2024-01-07T09:56:42;128.85;;;61.17;;
46753;SDS011;32500;50.620;3.400;2024-01-07T09:59:15;130.63;;;60.85;;
46753;SDS011;32500;50.620;3.400;2024-01-07T10:01:43;128.95;;;60.80;;
46753;SDS011;32500;50.620;3.400;2024-01-07T10:04:10;128.05;;;60.00;;
46753;SDS011;32500;50.620;3.400;2024-01-07T10:06:36;128.30;;;59.65;;
46753;SDS011;32500;50.620;3.400;2024-01-07T10:09:02;130.05;;;60.03;;
46753;SDS011;32500;50.620;3.400;2024-01-07T10:11:31;126.65;;;59.30;;
46753;SDS011;32500;50.620;3.400;2024-01-07T10:13:57;130.68;;;59.13;;
46753;SDS011;32500;50.620;3.400;2024-01-07T10:16:23;128.30;;;58.95;;
46753;SDS011;32500;50.620;3.400;2024-01-07T10:18:48;129.27;;;58.90;;
46753;SDS011;32500;50.620;3.400;2024-01-07T10:21:14;127.90;;;58.80;;
46753;SDS011;32500;50.620;3.400;2024-01-07T10:23:40;130.65;;;59.67;;
46753;SDS011;32500;50.620;3.400;2024-01-07T10:26:06;125.90;;;59.10;;
46753;SDS011;32500;50.620;3.400;2024-01-07T10:28:32;126.60;;;58.70;;
46753;SDS011;32500;50.620;3.400;2024-01-07T10:30:57;126.57;;;58.47;;
46753;SDS011;32500;50.620;3.400;2024-01-07T10:33:23;128.35;;;58.63;;
46753;SDS011;32500;50.620;3.400;2024-01-07T10:35:52;129.90;;;59.20;;
46753;SDS011;32500;50.620;3.400;2024-01-07T10:38:25;125.78;;;58.42;;
46753;SDS011;32500;50.620;3.400;2024-01-07T10:40:52;129.57;;;59.13;;
46753;SDS011;32500;50.620;3.400;2024-01-07T10:43:20;126.88;;;58.55;;
46753;SDS011;32500;50.620;3.400;2024-01-07T10:45:47;141.00;;;69.85;;
46753;SDS011;32500;50.620;3.400;2024-01-07T10:48:18;152.82;;;80.22;;
46753;SDS011;32500;50.620;3.400;2024-01-07T10:50:45;157.48;;;79.00;;
46753;SDS011;32500;50.620;3.400;2024-01-07T10:53:17;148.73;;;76.15;;
46753;SDS011;32500;50.620;3.400;2024-01-07T10:58:33;145.68;;;73.75;;
46753;SDS011;32500;50.620;3.400;2024-01-07T11:01:00;146.00;;;73.07;;
46753;SDS011;32500;50.620;3.400;2024-01-07T11:06:31;156.73;;;84.25;;
46753;SDS011;32500;50.620;3.400;2024-01-07T11:11:51;159.57;;;86.47;;
46753;SDS011;32500;50.620;3.400;2024-01-07T11:14:50;156.93;;;84.53;;
46753;SDS011;32500;50.620;3.400;2024-01-07T11:20:04;157.15;;;79.85;;
46753;SDS011;32500;50.620;3.400;2024-01-07T11:22:36;151.88;;;78.53;;
46753;SDS011;32500;50.620;3.400;2024-01-07T11:25:19;154.05;;;77.63;;
46753;SDS011;32500;50.620;3.400;2024-01-07T11:28:00;150.63;;;74.80;;
46753;SDS011;32500;50.620;3.400;2024-01-07T11:30:26;146.80;;;74.47;;
46753;SDS011;32500;50.620;3.400;2024-01-07T11:32:59;151.32;;;71.88;;
46753;SDS011;32500;50.620;3.400;2024-01-07T11:38:23;147.68;;;70.22;;
46753;SDS011;32500;50.620;3.400;2024-01-07T11:40:49;147.68;;;69.00;;
46753;SDS011;32500;50.620;3.400;2024-01-07T11:43:16;142.25;;;69.65;;
46753;SDS011;32500;50.620;3.400;2024-01-07T11:45:42;145.60;;;69.63;;
46753;SDS011;32500;50.620;3.400;2024-01-07T11:48:08;150.15;;;69.97;;
46753;SDS011;32500;50.620;3.400;2024-01-07T11:50:34;150.27;;;68.63;;
46753;SDS011;32500;50.620;3.400;2024-01-07T11:53:00;150.05;;;68.65;;
46753;SDS011;32500;50.620;3.400;2024-01-07T11:55:26;148.43;;;68.25;;
46753;SDS011;32500;50.620;3.400;2024-01-07T11:57:54;153.15;;;67.90;;
46753;SDS011;32500;50.620;3.400;2024-01-07T12:00:21;147.38;;;67.43;;
46753;SDS011;32500;50.620;3.400;2024-01-07T12:02:47;149.13;;;67.28;;
46753;SDS011;32500;50.620;3.400;2024-01-07T12:05:12;149.27;;;66.03;;
46753;SDS011;32500;50.620;3.400;2024-01-07T12:07:40;141.73;;;66.97;;
46753;SDS011;32500;50.620;3.400;2024-01-07T12:10:07;143.23;;;66.18;;
46753;SDS011;32500;50.620;3.400;2024-01-07T12:12:37;139.45;;;65.53;;
46753;SDS011;32500;50.620;3.400;2024-01-07T12:15:04;142.48;;;65.90;;
46753;SDS011;32500;50.620;3.400;2024-01-07T12:17:32;141.05;;;65.60;;
46753;SDS011;32500;50.620;3.400;2024-01-07T12:19:59;141.13;;;64.63;;
46753;SDS011;32500;50.620;3.400;2024-01-07T12:22:26;141.15;;;65.43;;
46753;SDS011;32500;50.620;3.400;2024-01-07T12:25:02;137.50;;;64.63;;
46753;SDS011;32500;50.620;3.400;2024-01-07T12:27:28;137.82;;;63.85;;
46753;SDS011;32500;50.620;3.400;2024-01-07T12:29:58;135.45;;;64.38;;
46753;SDS011;32500;50.620;3.400;2024-01-07T12:32:27;139.18;;;64.40;;
46753;SDS011;32500;50.620;3.400;2024-01-07T12:34:53;139.25;;;64.10;;
46753;SDS011;32500;50.620;3.400;2024-01-07T12:37:21;135.40;;;63.53;;
46753;SDS011;32500;50.620;3.400;2024-01-07T12:39:47;142.48;;;63.75;;
46753;SDS011;32500;50.620;3.400;2024-01-07T12:42:12;138.15;;;64.72;;
46753;SDS011;32500;50.620;3.400;2024-01-07T12:44:38;135.10;;;63.20;;
46753;SDS011;32500;50.620;3.400;2024-01-07T12:47:04;136.55;;;63.20;;
46753;SDS011;32500;50.620;3.400;2024-01-07T12:49:30;132.98;;;62.83;;
46753;SDS011;32500;50.620;3.400;2024-01-07T12:51:56;135.27;;;63.10;;
46753;SDS011;32500;50.620;3.400;2024-01-07T12:54:22;138.07;;;63.55;;
46753;SDS011;32500;50.620;3.400;2024-01-07T12:56:49;137.18;;;62.75;;
46753;SDS011;32500;50.620;3.400;2024-01-07T12:59:15;135.00;;;63.13;;
46753;SDS011;32500;50.620;3.400;2024-01-07T13:01:40;136.90;;;63.35;;
46753;SDS011;32500;50.620;3.400;2024-01-07T13:04:06;137.82;;;63.30;;
46753;SDS011;32500;50.620;3.400;2024-01-07T13:06:34;134.65;;;61.53;;
46753;SDS011;32500;50.620;3.400;2024-01-07T13:09:00;137.95;;;62.95;;
46753;SDS011;32500;50.620;3.400;2024-01-07T13:11:28;133.50;;;62.40;;
46753;SDS011;32500;50.620;3.400;2024-01-07T13:13:54;137.20;;;62.40;;
46753;SDS011;32500;50.620;3.400;2024-01-07T13:16:24;140.18;;;62.72;;
46753;SDS011;32500;50.620;3.400;2024-01-07T13:18:50;132.85;;;61.78;;
46753;SDS011;32500;50.620;3.400;2024-01-07T13:21:16;133.40;;;61.65;;
46753;SDS011;32500;50.620;3.400;2024-01-07T13:23:43;134.80;;;62.25;;
46753;SDS011;32500;50.620;3.400;2024-01-07T13:26:09;133.02;;;61.55;;
46753;SDS011;32500;50.620;3.400;2024-01-07T13:28:35;132.15;;;62.13;;
46753;SDS011;32500;50.620;3.400;2024-01-07T13:31:01;132.45;;;61.95;;
46753;SDS011;32500;50.620;3.400;2024-01-07T13:33:28;130.45;;;61.78;;
46753;SDS011;32500;50.620;3.400;2024-01-07T13:35:54;130.77;;;61.70;;
46753;SDS011;32500;50.620;3.400;2024-01-07T13:38:20;130.45;;;60.85;;
46753;SDS011;32500;50.620;3.400;2024-01-07T13:40:47;127.97;;;60.70;;
46753;SDS011;32500;50.620;3.400;2024-01-07T13:43:13;129.23;;;60.63;;
46753;SDS011;32500;50.620;3.400;2024-01-07T13:45:38;128.15;;;60.30;;
46753;SDS011;32500;50.620;3.400;2024-01-07T13:48:04;130.73;;;61.40;;
46753;SDS011;32500;50.620;3.400;2024-01-07T13:50:32;130.30;;;60.78;;
46753;SDS011;32500;50.620;3.400;2024-01-07T13:52:58;128.27;;;60.90;;
46753;SDS011;32500;50.620;3.400;2024-01-07T13:55:23;129.15;;;61.30;;
46753;SDS011;32500;50.620;3.400;2024-01-07T13:57:49;128.40;;;60.08;;
46753;SDS011;32500;50.620;3.400;2024-01-07T14:00:15;129.68;;;61.42;;
46753;SDS011;32500;50.620;3.400;2024-01-07T14:02:43;127.97;;;60.40;;
46753;SDS011;32500;50.620;3.400;2024-01-07T14:05:11;127.80;;;60.08;;
46753;SDS011;32500;50.620;3.400;2024-01-07T14:07:37;130.80;;;61.33;;
46753;SDS011;32500;50.620;3.400;2024-01-07T14:10:03;132.15;;;60.90;;
46753;SDS011;32500;50.620;3.400;2024-01-07T14:12:30;127.35;;;60.40;;
46753;SDS011;32500;50.620;3.400;2024-01-07T14:14:57;126.85;;;59.75;;
46753;SDS011;32500;50.620;3.400;2024-01-07T14:17:23;125.88;;;59.53;;
46753;SDS011;32500;50.620;3.400;2024-01-07T14:19:49;127.32;;;60.75;;